Time;durP1;ratioP1;P1;durP2;ratioP2;P2;SDS_P1;SDS_P2;PMS_P1;PMS_P2;Temp;Humidity;BMP_temperature;BMP_pressure;BME280_temperature;BME280_humidity;BME280_pressure;Samples;Min_cycle;Max_cycle;Signal;HPM_P1;HPM_P2
2022/04/01 00:02:09;;;;;;;4.78;0.30;;;;;;;18.92;48.06;98119.28;5000280;28;20038;-41
2022/04/01 00:04:34;;;;;;;2.40;0.30;;;;;;;18.92;48.00;98124.53;4989545;28;20046;-43
2022/04/01 00:07:00;;;;;;;2.22;0.30;;;;;;;18.92;48.10;98121.13;4995569;28;20026;-40
2022/04/01 00:09:25;;;;;;;3.72;0.32;;;;;;;18.93;48.07;98123.50;5001457;28;20169;-41
2022/04/01 00:11:51;;;;;;;0.60;0.30;;;;;;;18.94;47.84;98126.94;5003492;28;20040;-41
2022/04/01 00:14:17;;;;;;;1.42;0.20;;;;;;;18.94;47.88;98127.72;5002709;28;20418;-41
2022/04/01 00:16:42;;;;;;;1.65;0.20;;;;;;;18.93;47.81;98127.97;4998618;28;20114;-42
2022/04/01 00:19:08;;;;;;;3.40;0.20;;;;;;;18.92;47.82;98129.81;4989951;28;20062;-41
2022/04/01 00:21:34;;;;;;;1.05;0.30;;;;;;;18.92;47.93;98131.66;4999770;28;20078;-41
2022/04/01 00:24:01;;;;;;;0.95;0.30;;;;;;;18.90;47.90;98129.31;5004228;28;20026;-40
2022/04/01 00:26:27;;;;;;;4.00;0.20;;;;;;;18.89;47.88;98123.25;4995796;28;20473;-40
2022/04/01 00:28:52;;;;;;;1.55;0.30;;;;;;;18.89;47.93;98128.53;4990372;28;20026;-42
2022/04/01 00:31:18;;;;;;;2.22;0.20;;;;;;;18.87;48.03;98130.63;4986243;28;20042;-42
2022/04/01 00:33:44;;;;;;;1.67;0.20;;;;;;;18.87;47.92;98143.81;4973467;28;20421;-40
2022/04/01 00:36:09;;;;;;;1.60;0.22;;;;;;;18.86;47.92;98138.78;4994190;28;20030;-41
2022/04/01 00:38:34;;;;;;;0.52;0.17;;;;;;;18.85;47.87;98139.84;4995612;28;20030;-40
2022/04/01 00:41:00;;;;;;;0.50;0.10;;;;;;;18.83;47.91;98137.44;5003527;28;20045;-41
2022/04/01 00:43:32;;;;;;;0.75;0.20;;;;;;;18.82;48.24;98142.97;5000943;28;20109;-40
2022/04/01 00:45:58;;;;;;;0.47;0.20;;;;;;;18.80;48.10;98140.59;4997809;28;20162;-40
2022/04/01 00:48:25;;;;;;;1.77;0.20;;;;;;;18.79;48.13;98141.63;4992820;28;20157;-40
2022/04/01 00:50:51;;;;;;;0.73;0.10;;;;;;;18.79;48.07;98144.28;4994926;28;21191;-41
2022/04/01 00:53:17;;;;;;;1.70;0.20;;;;;;;18.78;48.01;98137.41;5003600;28;20197;-40
2022/04/01 00:55:43;;;;;;;1.40;0.20;;;;;;;18.77;48.23;98133.19;4998527;28;20033;-41
2022/04/01 00:58:09;;;;;;;2.35;0.20;;;;;;;18.76;48.05;98142.16;4998647;28;20030;-40
2022/04/01 01:00:36;;;;;;;0.50;0.10;;;;;;;18.76;47.96;98134.22;4998616;28;20460;-40
2022/04/01 01:03:03;;;;;;;0.52;0.17;;;;;;;18.76;47.99;98139.50;4990122;28;20134;-40
2022/04/01 01:05:30;;;;;;;0.60;0.22;;;;;;;18.76;48.00;98125.53;4994988;28;20030;-41
2022/04/01 01:07:57;;;;;;;1.25;0.20;;;;;;;18.77;47.94;98127.13;5002736;28;20088;-41
2022/04/01 01:10:23;;;;;;;1.20;0.20;;;;;;;18.77;47.87;98127.91;4998303;28;20048;-40
2022/04/01 01:12:49;;;;;;;1.08;0.10;;;;;;;18.78;47.67;98123.44;4989612;28;20030;-40
2022/04/01 01:15:18;;;;;;;2.35;0.17;;;;;;;18.77;47.85;98116.56;4988777;28;20575;-41
2022/04/01 01:17:45;;;;;;;1.02;0.10;;;;;;;18.77;47.73;98120.00;4993026;28;20018;-46
2022/04/01 01:20:15;;;;;;;0.65;0.13;;;;;;;18.77;47.85;98113.94;5003420;28;20427;-40
2022/04/01 01:22:49;;;;;;;1.00;0.10;;;;;;;18.74;47.73;98115.22;4968858;28;20451;-44
2022/04/01 01:25:15;;;;;;;1.75;0.17;;;;;;;18.76;47.72;98122.88;4999698;28;20446;-42
2022/04/01 01:27:42;;;;;;;0.77;0.20;;;;;;;18.75;47.67;98111.53;4998777;28;20057;-41
2022/04/01 01:30:09;;;;;;;1.15;0.10;;;;;;;18.75;47.77;98111.53;4993917;28;20038;-41
2022/04/01 01:32:35;;;;;;;1.08;0.20;;;;;;;18.75;47.77;98108.91;4996513;28;20168;-41
2022/04/01 01:35:06;;;;;;;0.47;0.20;;;;;;;18.74;47.89;98114.44;5002195;28;20042;-42
2022/04/01 01:37:31;;;;;;;0.60;0.10;;;;;;;18.73;48.03;98113.63;4993348;28;20042;-41
2022/04/01 01:39:58;;;;;;;0.30;0.10;;;;;;;18.71;47.90;98113.09;5000443;28;20358;-40
2022/04/01 01:42:24;;;;;;;0.32;0.10;;;;;;;18.69;47.93;98117.03;4999749;28;20110;-41
2022/04/01 01:44:49;;;;;;;0.30;0.10;;;;;;;18.68;48.02;98105.69;5000835;28;20037;-41
2022/04/01 01:47:15;;;;;;;0.73;0.10;;;;;;;18.68;47.87;98110.97;4998500;28;20030;-41
2022/04/01 01:54:42;;;;;;;0.40;0.10;;;;;;;18.67;47.87;98104.09;4995092;28;20079;-41
2022/04/01 01:55:20;;;;;;;2.83;0.10;;;;;;;18.64;48.14;98114.34;4991895;28;20048;-42
2022/04/01 01:57:46;;;;;;;1.00;0.10;;;;;;;18.64;48.02;98119.63;4995002;28;20030;-41
2022/04/01 02:00:12;;;;;;;1.08;0.10;;;;;;;18.64;47.99;98114.34;4997051;28;20458;-40
2022/04/01 02:02:38;;;;;;;0.60;0.13;;;;;;;18.65;48.01;98115.94;4999651;28;20614;-40
2022/04/01 02:05:06;;;;;;;0.60;0.10;;;;;;;18.66;47.94;98118.34;4988712;28;20031;-41
2022/04/01 02:07:32;;;;;;;1.05;0.10;;;;;;;18.67;47.77;98117.28;4989188;28;20183;-40
2022/04/01 02:09:58;;;;;;;0.55;0.10;;;;;;;18.69;47.89;98109.13;4991489;28;20145;-41
2022/04/01 02:12:23;;;;;;;1.48;0.17;;;;;;;18.67;47.72;98106.72;5095130;22;20061;-41
2022/04/01 02:14:49;;;;;;;0.65;0.10;;;;;;;18.69;47.79;98109.91;5006918;28;20135;-42
2022/04/01 02:17:14;;;;;;;0.50;0.10;;;;;;;18.69;47.61;98101.19;5006716;28;20034;-40
2022/04/01 02:19:40;;;;;;;0.40;0.10;;;;;;;18.70;47.72;98116.78;5006771;28;20132;-42
2022/04/01 02:22:05;;;;;;;0.77;0.17;;;;;;;18.71;47.75;98110.47;5006856;28;20041;-41
2022/04/01 02:24:31;;;;;;;0.50;0.08;;;;;;;18.72;47.80;98111.25;5007076;28;20034;-41
2022/04/01 02:26:56;;;;;;;0.45;0.10;;;;;;;18.72;47.80;98113.88;5006741;28;20540;-40
2022/04/01 02:29:23;;;;;;;0.40;0.10;;;;;;;18.72;47.67;98114.69;5006668;28;20030;-40
2022/04/01 02:31:50;;;;;;;1.30;0.10;;;;;;;18.70;47.54;98119.41;5007046;28;20102;-44
2022/04/01 02:34:17;;;;;;;0.60;0.10;;;;;;;18.72;47.67;98121.81;5007048;28;20045;-41
2022/04/01 02:36:43;;;;;;;2.75;0.10;;;;;;;18.70;47.69;98114.13;5007043;28;20030;-41
2022/04/01 02:39:09;;;;;;;0.57;0.10;;;;;;;18.70;47.63;98115.97;5007026;28;20393;-40
2022/04/01 02:41:35;;;;;;;1.20;0.20;;;;;;;18.69;47.73;98111.75;5006885;28;20072;-41
2022/04/01 02:44:12;;;;;;;0.65;0.10;;;;;;;18.69;47.67;98117.03;5007161;28;20110;-41
2022/04/01 02:46:41;;;;;;;0.80;0.10;;;;;;;18.66;47.79;98126.25;5006954;28;20037;-40
2022/04/01 02:49:08;;;;;;;0.30;0.10;;;;;;;18.66;47.72;98126.25;5006910;28;20520;-42
2022/04/01 02:51:39;;;;;;;0.40;0.10;;;;;;;18.65;47.78;98126.50;5006701;28;20037;-40
2022/04/01 02:54:06;;;;;;;0.30;0.10;;;;;;;18.65;47.74;98135.19;5008823;28;20038;-42
2022/04/01 02:56:33;;;;;;;0.38;0.08;;;;;;;18.64;47.75;98132.81;5010961;28;20489;-41
2022/04/01 02:59:00;;;;;;;0.85;0.10;;;;;;;18.63;47.88;98126.75;5009225;28;20037;-41
2022/04/01 03:01:26;;;;;;;0.50;0.10;;;;;;;18.62;47.82;98125.16;5010416;28;20065;-41
2022/04/01 03:03:51;;;;;;;1.02;0.10;;;;;;;18.61;47.80;98134.13;5010847;28;20053;-41
2022/04/01 03:06:17;;;;;;;0.28;0.00;;;;;;;18.61;47.90;98130.69;5010482;28;20449;-40
2022/04/01 03:08:43;;;;;;;0.50;0.10;;;;;;;18.60;47.89;98135.16;5010522;28;20037;-41
2022/04/01 03:11:09;;;;;;;0.03;0.00;;;;;;;18.59;47.90;98138.81;5008684;28;20046;-40
2022/04/01 03:13:35;;;;;;;0.20;0.10;;;;;;;18.57;47.92;98139.06;5010096;28;20504;-42
2022/04/01 03:16:01;;;;;;;0.40;0.10;;;;;;;18.58;47.89;98145.13;5010159;28;20057;-40
2022/04/01 03:18:27;;;;;;;0.75;0.10;;;;;;;18.57;47.87;98154.09;5010134;28;20128;-40
2022/04/01 03:20:52;;;;;;;0.75;0.10;;;;;;;18.56;47.95;98148.03;5010046;28;20040;-42
2022/04/01 03:23:18;;;;;;;0.50;0.00;;;;;;;18.55;47.93;98148.28;5008785;28;20029;-42
2022/04/01 03:25:43;;;;;;;0.10;0.00;;;;;;;18.55;47.92;98153.53;5009911;28;20434;-40
2022/04/01 03:28:09;;;;;;;0.25;0.10;;;;;;;18.56;47.78;98152.50;5010245;28;20026;-41
2022/04/01 03:30:34;;;;;;;0.50;0.10;;;;;;;18.55;47.95;98156.97;5010227;28;20112;-42
2022/04/01 03:33:00;;;;;;;0.73;0.10;;;;;;;18.55;47.91;98154.34;5010061;28;20034;-41
2022/04/01 03:35:27;;;;;;;0.68;0.20;;;;;;;18.57;47.78;98156.72;5010218;28;20033;-42
2022/04/01 03:37:53;;;;;;;0.45;0.10;;;;;;;18.56;47.78;98160.41;5009709;28;20355;-40
2022/04/01 03:40:19;;;;;;;0.17;0.00;;;;;;;18.56;47.69;98157.78;5009648;28;20048;-41
2022/04/01 03:42:48;;;;;;;0.35;0.10;;;;;;;18.57;47.44;98154.09;5009973;28;20555;-41
2022/04/01 03:45:14;;;;;;;1.42;0.10;;;;;;;18.57;47.67;98159.38;5009877;28;20406;-41
2022/04/01 03:48:03;;;;;;;0.40;0.10;;;;;;;18.54;47.64;98157.22;5009648;28;20064;-40
2022/04/01 03:50:34;;;;;;;0.85;0.15;;;;;;;18.54;47.74;98159.88;5009287;28;20495;-43
2022/04/01 03:53:06;;;;;;;0.95;0.10;;;;;;;18.54;47.89;98163.31;5009437;28;20034;-40
2022/04/01 03:55:35;;;;;;;0.52;0.10;;;;;;;18.54;47.83;98162.50;5009278;28;20034;-42
2022/04/01 03:58:09;;;;;;;1.08;0.10;;;;;;;18.51;47.81;98163.00;5009504;28;20380;-40
2022/04/01 04:00:38;;;;;;;0.28;0.10;;;;;;;18.52;47.83;98164.59;5009134;28;20482;-40
2022/04/01 04:03:08;;;;;;;0.32;0.10;;;;;;;18.51;47.86;98163.81;5009110;28;20111;-43
2022/04/01 04:05:36;;;;;;;0.30;0.00;;;;;;;18.50;47.88;98164.84;5009482;28;20068;-40
2022/04/01 04:08:03;;;;;;;0.30;0.10;;;;;;;18.50;47.85;98162.22;5008970;28;20034;-41
2022/04/01 04:10:30;;;;;;;0.22;0.10;;;;;;;18.48;47.79;98169.56;5008961;28;20097;-40
2022/04/01 04:12:57;;;;;;;1.05;0.10;;;;;;;18.47;48.00;98167.19;5008867;28;20093;-41
2022/04/01 04:15:26;;;;;;;6.47;0.10;;;;;;;18.45;48.10;98170.06;5007924;28;20042;-41
2022/04/01 04:17:58;;;;;;;0.93;0.20;;;;;;;18.46;48.10;98170.88;5009113;28;20053;-43
2022/04/01 04:20:38;;;;;;;0.80;0.10;;;;;;;18.47;48.03;98167.19;5008177;28;20036;-41
2022/04/01 04:23:12;;;;;;;2.03;0.10;;;;;;;18.49;48.74;98165.09;5008531;28;20118;-46
2022/04/01 04:25:39;;;;;;;0.55;0.10;;;;;;;18.52;49.37;98161.97;5007391;28;20095;-42
2022/04/01 04:28:14;;;;;;;10.88;0.40;;;;;;;18.56;50.31;98165.69;5008729;28;20033;-40
2022/04/01 04:30:50;;;;;;;3.40;0.30;;;;;;;18.56;50.65;98163.06;5007895;28;20128;-41
2022/04/01 04:33:17;;;;;;;7.78;0.40;;;;;;;18.58;50.52;98168.88;5008269;28;20493;-41
2022/04/01 04:35:48;;;;;;;7.57;0.40;;;;;;;18.60;50.71;98171.25;5008090;28;20389;-42
2022/04/01 04:38:14;;;;;;;11.93;0.68;;;;;;;18.60;51.08;98172.09;5006093;28;20437;-41
2022/04/01 04:40:42;;;;;;;11.73;0.52;;;;;;;18.62;51.22;98172.63;5007871;28;20030;-41
2022/04/01 04:43:09;;;;;;;6.47;0.60;;;;;;;18.64;51.47;98175.00;5007637;28;20445;-41
2022/04/01 04:45:35;;;;;;;10.85;0.55;;;;;;;18.64;51.31;98173.16;5007624;28;20440;-41
2022/04/01 04:48:03;;;;;;;2.45;0.28;;;;;;;18.62;50.96;98175.25;5007941;28;20053;-40
2022/04/01 04:50:29;;;;;;;5.93;0.20;;;;;;;18.63;50.85;98186.59;5007995;28;20038;-40
2022/04/01 04:52:56;;;;;;;12.30;0.60;;;;;;;18.64;50.95;98194.25;5007932;28;20041;-40
2022/04/01 04:55:23;;;;;;;4.25;0.57;;;;;;;18.64;50.96;98188.19;5007576;28;20030;-39
2022/04/01 04:57:51;;;;;;;4.13;0.30;;;;;;;18.63;50.86;98192.69;5005771;28;20515;-40
2022/04/01 05:00:19;;;;;;;2.97;0.20;;;;;;;18.63;50.88;98190.03;4988605;28;20034;-41
2022/04/01 05:02:50;;;;;;;3.90;0.10;;;;;;;18.61;50.70;98192.13;4998127;28;20127;-40
2022/04/01 05:05:27;;;;;;;2.88;0.20;;;;;;;18.60;50.37;98202.91;5007881;28;20076;-40
2022/04/01 05:08:17;;;;;;;1.35;0.15;;;;;;;18.56;50.01;98202.59;5007952;28;20045;-38
2022/04/01 05:10:53;;;;;;;2.75;0.10;;;;;;;18.53;49.93;98214.44;5008290;28;20247;-40
2022/04/01 05:13:35;;;;;;;3.10;0.10;;;;;;;18.54;49.55;98215.25;5007733;28;20120;-40
2022/04/01 05:16:07;;;;;;;1.85;0.10;;;;;;;18.54;49.54;98215.25;5005854;28;20042;-39
2022/04/01 05:18:47;;;;;;;2.05;0.30;;;;;;;18.52;49.41;98217.34;5006329;28;20030;-39
2022/04/01 05:21:20;;;;;;;0.90;0.10;;;;;;;18.51;49.25;98218.38;5008112;28;20310;-39
2022/04/01 05:23:58;;;;;;;6.75;0.63;;;;;;;18.51;49.34;98227.09;5008179;28;20018;-39
2022/04/01 05:26:38;;;;;;;1.50;0.20;;;;;;;18.50;49.31;98220.22;5007645;28;20041;-39
2022/04/01 05:29:08;;;;;;;0.90;0.10;;;;;;;18.49;49.22;98225.75;5007721;28;20025;-40
2022/04/01 05:31:46;;;;;;;0.43;0.10;;;;;;;18.47;49.10;98231.25;5007437;28;20477;-41
2022/04/01 05:34:25;;;;;;;0.60;0.10;;;;;;;18.46;48.97;98218.31;5007601;28;20105;-39
2022/04/01 05:36:51;;;;;;;1.95;0.20;;;;;;;18.48;48.95;98226.78;5007290;28;20399;-40
2022/04/01 05:39:17;;;;;;;0.32;0.10;;;;;;;18.46;48.97;98223.59;5005777;28;20497;-44
2022/04/01 05:41:45;;;;;;;1.77;0.10;;;;;;;18.45;48.99;98235.19;5007547;28;20460;-39
2022/04/01 05:44:12;;;;;;;0.95;0.10;;;;;;;18.44;49.04;98241.50;5007370;28;20464;-39
2022/04/01 05:46:39;;;;;;;0.82;0.10;;;;;;;18.43;48.98;98245.97;5007388;28;20112;-39
2022/04/01 05:49:05;;;;;;;0.93;0.10;;;;;;;18.43;48.97;98242.59;5007059;28;20034;-39
2022/04/01 05:51:31;;;;;;;1.70;0.13;;;;;;;18.42;48.85;98251.53;5007007;28;20038;-39
2022/04/01 05:53:56;;;;;;;1.77;0.20;;;;;;;18.44;48.74;98249.41;5007598;28;20057;-40
2022/04/01 05:56:22;;;;;;;0.22;0.10;;;;;;;18.45;48.76;98248.38;5007386;28;20033;-40
2022/04/01 05:58:48;;;;;;;3.00;0.15;;;;;;;18.45;48.60;98248.38;5007372;28;20022;-40
2022/04/01 06:01:30;;;;;;;1.20;0.20;;;;;;;18.45;48.47;98249.16;5005748;28;20396;-39
2022/04/01 06:04:01;;;;;;;2.30;0.20;;;;;;;18.44;48.60;98252.84;5007095;28;20129;-39
2022/04/01 06:06:40;;;;;;;0.57;0.20;;;;;;;18.44;48.48;98257.31;5007261;28;20033;-39
2022/04/01 06:09:11;;;;;;;0.60;0.10;;;;;;;18.44;48.61;98262.59;5007276;28;20044;-40
2022/04/01 06:11:49;;;;;;;0.47;0.20;;;;;;;18.45;48.49;98264.19;5006715;28;20548;-39
2022/04/01 06:14:38;;;;;;;0.55;0.20;;;;;;;18.46;48.36;98268.41;5006871;28;20115;-39
2022/04/01 06:17:11;;;;;;;2.42;0.20;;;;;;;18.50;48.35;98266.88;5006928;28;20308;-39
2022/04/01 06:19:44;;;;;;;0.47;0.10;;;;;;;18.53;48.27;98266.38;5005747;28;20053;-40
2022/04/01 06:22:18;;;;;;;1.27;0.20;;;;;;;18.57;48.20;98272.75;5006827;28;20041;-42
2022/04/01 06:25:03;;;;;;;2.05;0.10;;;;;;;18.59;48.20;98270.66;5006647;28;20034;-42
2022/04/01 06:27:38;;;;;;;1.98;0.20;;;;;;;18.63;48.17;98271.78;5009589;28;20530;-42
2022/04/01 06:30:05;;;;;;;1.27;0.20;;;;;;;18.67;48.02;98270.25;5011335;28;20373;-40
2022/04/01 06:32:50;;;;;;;0.90;0.20;;;;;;;18.73;47.99;98271.91;5009460;28;20041;-39
2022/04/01 06:35:26;;;;;;;1.75;0.20;;;;;;;18.80;47.79;98271.69;5010737;28;20124;-40
2022/04/01 06:38:00;;;;;;;3.72;0.20;;;;;;;18.84;47.72;98273.59;5010679;28;20117;-40
2022/04/01 06:40:55;;;;;;;0.50;0.10;;;;;;;18.90;47.82;98277.81;5011047;28;20076;-40
2022/04/01 06:43:22;;;;;;;2.47;0.20;;;;;;;18.97;47.88;98280.25;5010303;28;20025;-40
2022/04/01 06:45:48;;;;;;;2.47;0.25;;;;;;;19.00;47.79;98284.25;5010557;28;20061;-40
2022/04/01 06:48:13;;;;;;;2.95;0.20;;;;;;;19.06;48.21;98283.25;5010824;28;20054;-39
2022/04/01 06:50:41;;;;;;;0.65;0.20;;;;;;;19.12;48.37;98290.16;5010304;28;20040;-40
2022/04/01 06:53:06;;;;;;;0.35;0.10;;;;;;;19.15;48.41;98287.81;5010426;28;20595;-40
2022/04/01 06:55:32;;;;;;;2.80;0.20;;;;;;;19.18;48.77;98289.16;5010437;28;20120;-46
2022/04/01 06:57:57;;;;;;;4.05;0.20;;;;;;;19.21;49.34;98293.91;5010490;28;20030;-42
2022/04/01 07:00:26;;;;;;;1.55;0.20;;;;;;;19.22;49.70;98291.03;5010562;28;20084;-43
2022/04/01 07:02:51;;;;;;;2.80;0.50;;;;;;;19.27;49.99;98292.91;5010248;28;20022;-41
2022/04/01 07:05:18;;;;;;;2.00;0.10;;;;;;;19.31;50.17;98294.00;5010326;28;20040;-41
2022/04/01 07:07:44;;;;;;;1.25;0.20;;;;;;;19.35;50.14;98300.38;5010671;28;20032;-42
2022/04/01 07:10:14;;;;;;;1.55;0.10;;;;;;;19.38;50.32;98304.31;5010237;28;20042;-41
2022/04/01 07:12:40;;;;;;;4.15;0.20;;;;;;;19.37;50.34;98298.28;5009743;28;20511;-41
2022/04/01 07:15:07;;;;;;;1.67;0.20;;;;;;;19.42;50.34;98306.19;5010290;28;20108;-43
2022/04/01 07:17:33;;;;;;;2.70;0.20;;;;;;;19.44;50.24;98304.09;5010122;28;20390;-41
2022/04/01 07:19:59;;;;;;;3.58;0.20;;;;;;;19.45;50.09;98302.25;5009884;28;20527;-41
2022/04/01 07:22:25;;;;;;;3.08;0.25;;;;;;;19.45;50.03;98310.97;5010084;28;20032;-41
2022/04/01 07:24:50;;;;;;;2.28;0.10;;;;;;;19.44;49.88;98312.03;5010063;28;20033;-41
2022/04/01 07:27:17;;;;;;;2.80;0.17;;;;;;;19.42;49.80;98319.41;5009686;28;20386;-45
2022/04/01 07:29:43;;;;;;;1.05;0.10;;;;;;;19.41;49.57;98319.66;5009989;28;20041;-42
2022/04/01 07:34:53;;;;;;;1.33;0.20;;;;;;;19.37;49.46;98314.13;5010028;28;20037;-40
2022/04/01 07:37:23;;;;;;;0.30;0.10;;;;;;;19.39;49.57;98319.91;5009697;28;20029;-40
2022/04/01 07:39:54;;;;;;;0.93;0.10;;;;;;;19.38;49.37;98322.81;5007234;28;20121;-42
2022/04/01 07:42:22;;;;;;;0.47;0.10;;;;;;;19.38;49.46;98320.97;5009829;28;20046;-43
2022/04/01 07:44:49;;;;;;;1.65;0.10;;;;;;;19.38;49.50;98320.97;5006042;28;20481;-43
2022/04/01 07:47:15;;;;;;;2.05;0.25;;;;;;;19.39;49.63;98327.03;5005900;28;20030;-41
2022/04/01 07:49:42;;;;;;;1.50;0.17;;;;;;;19.39;49.38;98319.91;5009560;28;20033;-40
2022/04/01 07:52:09;;;;;;;1.80;0.13;;;;;;;19.38;49.42;98331.53;5009331;28;20030;-42
2022/04/01 07:54:36;;;;;;;2.45;0.10;;;;;;;19.39;49.34;98338.38;5008390;28;20053;-45
2022/04/01 07:57:03;;;;;;;1.50;0.10;;;;;;;19.38;49.30;98339.44;5009079;28;20041;-42
2022/04/01 07:59:28;;;;;;;1.60;0.15;;;;;;;19.36;49.17;98338.94;5009676;28;20065;-42
2022/04/01 08:01:53;;;;;;;3.58;0.20;;;;;;;19.37;49.26;98340.53;5009111;28;20053;-42
2022/04/01 08:04:20;;;;;;;1.55;0.10;;;;;;;19.37;49.23;98343.16;5009180;28;20033;-46
2022/04/01 08:06:45;;;;;;;2.90;0.40;;;;;;;19.38;49.19;98342.09;5007435;28;20494;-40
2022/04/01 08:09:11;;;;;;;0.63;0.10;;;;;;;19.38;49.28;98344.72;5009292;28;20022;-40
2022/04/01 08:11:36;;;;;;;1.15;0.20;;;;;;;19.39;49.08;98345.53;5008577;28;20578;-41
2022/04/01 08:14:02;;;;;;;2.40;0.10;;;;;;;19.39;49.03;98340.25;5008928;28;20037;-43
2022/04/01 08:16:28;;;;;;;4.50;0.20;;;;;;;19.37;48.86;98340.53;5009347;28;20061;-43
2022/04/01 08:18:53;;;;;;;2.40;0.15;;;;;;;19.39;48.88;98338.38;5007722;28;20061;-43
2022/04/01 08:21:19;;;;;;;6.20;0.10;;;;;;;19.41;48.56;98346.06;5009337;28;20213;-43
2022/04/01 08:23:45;;;;;;;6.18;0.10;;;;;;;19.40;48.63;98353.19;5008724;28;20355;-40
2022/04/01 08:26:11;;;;;;;0.60;0.20;;;;;;;19.40;48.51;98352.38;5008692;28;20451;-44
2022/04/01 08:28:37;;;;;;;0.32;0.10;;;;;;;19.41;48.47;98356.63;5008631;28;20037;-41
2022/04/01 08:31:03;;;;;;;0.30;0.10;;;;;;;19.40;48.34;98353.19;5008406;28;20026;-40
2022/04/01 08:33:29;;;;;;;2.25;0.10;;;;;;;19.40;48.25;98358.47;5008651;28;20444;-42
2022/04/01 08:35:56;;;;;;;1.10;0.10;;;;;;;19.39;48.33;98356.88;5006957;28;20037;-41
2022/04/01 08:38:21;;;;;;;1.60;0.40;;;;;;;19.39;48.40;98353.44;5008795;28;20026;-41
2022/04/01 08:40:47;;;;;;;0.70;0.10;;;;;;;19.37;48.28;98360.84;5008888;28;20028;-41
2022/04/01 08:43:13;;;;;;;1.85;0.10;;;;;;;19.35;48.30;98363.75;5008676;28;20112;-43
2022/04/01 08:45:39;;;;;;;0.73;0.10;;;;;;;19.34;48.21;98372.72;5003764;28;20478;-40
2022/04/01 08:48:11;;;;;;;1.27;0.10;;;;;;;19.33;48.30;98372.97;5003009;28;20025;-42
2022/04/01 08:50:37;;;;;;;2.83;0.20;;;;;;;19.31;48.42;98373.22;5003945;28;20037;-48
2022/04/01 08:53:03;;;;;;;0.55;0.10;;;;;;;19.32;48.38;98379.28;5006482;28;20501;-42
2022/04/01 08:55:29;;;;;;;1.02;0.10;;;;;;;19.30;48.65;98382.19;5006440;28;20135;-41
2022/04/01 08:57:55;;;;;;;1.75;0.10;;;;;;;19.31;48.46;98383.78;5006583;28;20029;-41
2022/04/01 09:00:20;;;;;;;2.75;0.10;;;;;;;19.30;48.43;98381.38;5006753;28;20040;-45
2022/04/01 09:02:58;;;;;;;1.85;0.10;;;;;;;19.29;48.27;98380.59;5004866;28;20042;-41
2022/04/01 09:05:23;;;;;;;2.10;0.10;;;;;;;19.30;48.18;98382.19;5004573;28;20060;-40
2022/04/01 09:08:07;;;;;;;3.47;0.10;;;;;;;19.28;48.12;98389.56;5004951;28;20485;-41
2022/04/01 09:10:50;;;;;;;1.08;0.10;;;;;;;19.27;48.05;98382.69;5007414;28;20040;-41
2022/04/01 09:13:15;;;;;;;0.98;0.10;;;;;;;19.28;47.87;98386.09;5004811;28;20049;-42
2022/04/01 09:15:42;;;;;;;0.98;0.15;;;;;;;19.29;47.78;98390.34;5006329;28;20030;-41
2022/04/01 09:18:09;;;;;;;1.95;0.10;;;;;;;19.29;47.84;98385.84;5005583;28;20030;-43
2022/04/01 09:20:55;;;;;;;1.13;0.08;;;;;;;19.25;47.85;98387.41;4993596;28;20468;-42
2022/04/01 09:23:24;;;;;;;0.22;0.10;;;;;;;19.26;47.90;98391.63;5005938;28;20053;-42
2022/04/01 09:25:52;;;;;;;1.02;0.10;;;;;;;19.30;47.69;98395.38;5005033;28;20034;-40
2022/04/01 09:28:27;;;;;;;3.83;0.10;;;;;;;19.27;47.99;98387.16;5006510;28;20029;-42
2022/04/01 09:31:01;;;;;;;2.50;0.60;;;;;;;19.26;47.76;98389.00;5006858;28;20702;-41
2022/04/01 09:33:48;;;;;;;10.68;4.88;;;;;;;19.25;48.04;98395.31;5004076;28;20038;-42
2022/04/01 09:36:15;;;;;;;8.40;5.57;;;;;;;19.28;48.14;98394.03;5006880;28;20042;-45
2022/04/01 09:39:06;;;;;;;5.30;3.92;;;;;;;19.26;48.61;98396.91;5005515;28;20119;-41
2022/04/01 09:41:39;;;;;;;3.72;1.77;;;;;;;19.28;48.53;98391.38;5006806;28;20088;-39
2022/04/01 09:44:09;;;;;;;4.90;1.42;;;;;;;19.28;48.40;98392.19;5000912;28;20034;-40
2022/04/01 09:46:42;;;;;;;5.03;1.13;;;;;;;19.26;48.47;98396.13;5001976;28;20021;-40
2022/04/01 09:49:07;;;;;;;2.80;0.63;;;;;;;19.25;48.53;98394.53;4998742;28;20046;-43
2022/04/01 09:51:33;;;;;;;4.00;0.63;;;;;;;19.23;48.63;98397.41;5000949;28;20160;-41
2022/04/01 09:54:02;;;;;;;1.95;0.60;;;;;;;19.21;48.29;98402.94;5001851;28;20041;-41
2022/04/01 09:56:37;;;;;;;2.25;0.65;;;;;;;19.20;48.36;98397.91;4998860;28;20037;-40
2022/04/01 09:59:05;;;;;;;3.30;0.68;;;;;;;19.20;48.78;98405.84;5001111;28;20038;-42
2022/04/01 10:01:33;;;;;;;3.45;0.73;;;;;;;19.18;48.52;98406.09;4999925;28;20034;-41
2022/04/01 10:03:58;;;;;;;2.90;0.52;;;;;;;19.18;48.59;98405.28;5001565;28;20029;-40
2022/04/01 10:06:24;;;;;;;2.53;0.90;;;;;;;19.17;48.42;98407.13;5003457;28;20107;-48
2022/04/01 10:08:51;;;;;;;3.55;0.55;;;;;;;19.15;48.89;98400.50;4996239;28;20041;-41
2022/04/01 10:11:19;;;;;;;3.97;0.65;;;;;;;19.14;48.77;98399.72;5003166;28;20038;-39
2022/04/01 10:13:46;;;;;;;4.45;0.50;;;;;;;19.15;48.86;98405.78;4997634;28;20057;-42
2022/04/01 10:16:12;;;;;;;4.45;0.50;;;;;;;19.13;48.98;98399.97;5005129;28;20096;-40
2022/04/01 10:18:42;;;;;;;2.28;0.40;;;;;;;19.11;48.94;98400.22;5003258;28;20037;-44
2022/04/01 10:21:09;;;;;;;2.40;0.47;;;;;;;19.12;48.84;98406.28;5002741;28;20184;-43
2022/04/01 10:23:42;;;;;;;3.95;0.43;;;;;;;19.11;48.66;98402.84;5006289;28;20091;-43
2022/04/01 10:26:13;;;;;;;3.00;0.60;;;;;;;19.10;48.94;98403.91;4992813;28;20046;-41
2022/04/01 10:28:40;;;;;;;4.10;0.50;;;;;;;19.09;49.22;98401.50;5002333;28;20069;-40
2022/04/01 10:31:14;;;;;;;8.50;0.80;;;;;;;19.07;49.07;98396.47;5006610;28;20034;-40
2022/04/01 10:33:39;;;;;;;4.68;0.63;;;;;;;19.08;49.06;98399.91;5002244;28;20061;-44
2022/04/01 10:36:23;;;;;;;3.20;0.70;;;;;;;19.04;48.74;98396.16;5006357;28;20548;-45
2022/04/01 10:38:58;;;;;;;1.33;0.47;;;;;;;19.06;48.93;98396.72;5006555;28;20038;-40
2022/04/01 10:41:23;;;;;;;0.90;0.32;;;;;;;19.03;48.76;98395.38;5006118;28;20113;-46
2022/04/01 10:43:55;;;;;;;2.42;0.50;;;;;;;19.03;48.70;98394.56;5004304;28;20128;-43
2022/04/01 10:46:20;;;;;;;2.40;0.43;;;;;;;19.03;48.77;98392.72;5003975;28;20077;-40
2022/04/01 10:52:11;;;;;;;5.55;0.55;;;;;;;18.99;49.05;98398.75;4981642;28;20045;-42
2022/04/01 10:54:42;;;;;;;7.97;0.52;;;;;;;19.02;49.09;98404.34;4998555;28;20045;-42
2022/04/01 10:57:10;;;;;;;16.00;3.30;;;;;;;19.07;50.31;98408.88;5003075;28;20057;-46
2022/04/01 10:59:45;;;;;;;40.33;11.55;;;;;;;19.13;51.70;98406.03;5006466;28;20148;-43
2022/04/01 11:02:15;;;;;;;122.18;49.83;;;;;;;19.22;53.38;98411.66;5003076;28;20580;-38
2022/04/01 11:04:42;;;;;;;100.88;59.42;;;;;;;19.32;53.81;98413.59;5003730;28;20426;-42
2022/04/01 11:07:11;;;;;;;91.57;57.13;;;;;;;19.48;53.77;98410.81;5005815;28;20044;-42
2022/04/01 11:09:56;;;;;;;79.45;48.10;;;;;;;19.70;53.83;98410.78;5003285;28;20037;-42
2022/04/01 11:12:22;;;;;;;38.35;23.38;;;;;;;19.85;52.53;98413.50;5004690;28;20128;-43
2022/04/01 11:15:07;;;;;;;34.75;20.67;;;;;;;20.00;53.18;98412.81;5008542;28;20050;-41
2022/04/01 11:17:35;;;;;;;32.35;17.75;;;;;;;20.23;59.98;98405.56;5006926;28;20029;-49
2022/04/01 11:20:19;;;;;;;34.67;15.80;;;;;;;20.38;63.97;98405.63;5008311;28;20034;-44
2022/04/01 11:23:06;;;;;;;28.67;16.15;;;;;;;20.52;66.98;98396.97;5007038;28;20038;-42
2022/04/01 11:25:31;;;;;;;28.00;16.15;;;;;;;20.62;66.08;98396.22;5007034;28;20080;-46
2022/04/01 11:27:56;;;;;;;25.17;15.90;;;;;;;20.70;67.98;98393.06;5007231;28;20037;-43
2022/04/01 11:30:30;;;;;;;28.83;16.05;;;;;;;20.81;68.16;98392.03;5006836;28;20048;-43
2022/04/01 11:33:29;;;;;;;28.23;16.63;;;;;;;20.92;70.43;98389.41;5006684;28;20065;-48
2022/04/01 11:35:55;;;;;;;28.23;15.75;;;;;;;20.97;69.83;98392.88;4985195;28;20061;-41
2022/04/01 11:38:26;;;;;;;27.30;17.70;;;;;;;20.97;67.27;98379.63;5008982;28;20080;-43
2022/04/01 11:40:55;;;;;;;25.23;14.55;;;;;;;20.84;64.57;98386.22;5009403;28;20058;-43
2022/04/01 11:43:23;;;;;;;29.10;13.80;;;;;;;20.68;61.97;98389.91;5009154;28;20048;-43
2022/04/01 11:45:48;;;;;;;22.75;13.00;;;;;;;20.53;60.92;98395.91;5003038;28;20481;-46
2022/04/01 11:48:13;;;;;;;25.15;12.80;;;;;;;20.44;59.93;98386.09;5008807;28;20140;-46
2022/04/01 11:50:45;;;;;;;23.27;13.23;;;;;;;20.34;60.98;98392.09;5007531;28;20477;-42